Airfield :
LOGIN :

Register | Disclaimer

   EN    FR    IT 

 










Legend :    VFR   Marginal VFR   IFR   Intensive IFR   Very Intensive IFR
Visi :
Ceiling :
>= 8 km
>= 3000ft
5 to 8 km
1000 to 3000 ft
1500m to 5 km
500 to 1000 ft
800 to 1500m
200 to 500 ft
< 800m
< 200 ft
Symbols :   Thunderstorms  Fog  Heavy snow  Heavy precipitations  Wind > 20 kt
SIGMETs :     Misc.  Thunderstorms  Icing  Turbulence  Mountain Waves  Volcanic Ashes






- Airport Elevation : 297 ft
- IATA code : UIP


LFRQ - Quimper Pluguffan

CURRENT METAR :
  • 241130Z AUTO 24019KT 9999 SCT013 OVC020 11/09 Q1020 BECMG 4000 RA OVC005

EXPIRED METARs :
  • 241100Z AUTO 24018KT 9999 BKN012 OVC020 10/09 Q1021 TEMPO 3000 DZ BR OVC004
  • 241030Z AUTO 24016KT 9999 OVC018 11/09 Q1021 TEMPO 3000 DZ BR OVC003 BECMG 23018G28KT
  • 241000Z AUTO 25015KT 9999 BKN014 OVC021 10/09 Q1021 TEMPO 3000 DZ BR OVC003 BECMG 23018G28KT
  • 240930Z AUTO 25014KT 9999 BKN016 OVC022 10/09 Q1022 TEMPO 3000 DZ BR OVC003 BECMG 23018G28KT
  • 240900Z AUTO 24015KT 9999 FEW008 BKN013 OVC019 10/09 Q1022 TEMPO 3000 DZ BR OVC003 BECMG 23018G28KT

TAF TAF LFRQ
Valid from the 24 at 12:00 until the 25 at 12:00 UTC


241100Z 2412/2512 25016KT 9999 FEW007 OVC018
TEMPO 2412/2413 3000 DZ BR OVC004
BECMG 2413/2415 4000 RA OVC005
TEMPO 2415/2419 2000 RA OVC003
BECMG 2421/2423 9999 NSW SCT015 BKN030
BECMG 2510/2512 27016G35KT
PROB30
TEMPO 2510/2512 -SHRA SCT015TCU



MET'MAP, your aeronautical weather chart ! - Copyright ORBIFLY December 2007 - Disclaimer

ORBIFLY MET'MAP TEAM :

Programming & Development : Alexandra Zaïnal
Concept & original design : Baudouin d'Aumeries
Assistance for programming : Marc-Olivier Méhu
Technical & hardware support : Manuel Goepfert

Contact : metmap@orbifly.com




SOURCES & CREDITS :

   NOAA